Time;durP1;ratioP1;P1;durP2;ratioP2;P2;SDS_P1;SDS_P2;PMS_P1;PMS_P2;Temp;Humidity;BMP_temperature;BMP_pressure;BME280_temperature;BME280_humidity;BME280_pressure;Samples;Min_cycle;Max_cycle;Signal;HPM_P1;HPM_P2
2022/09/24 00:00:58;;;;;;;21.95;12.10;;;8.70;99.90;;;;;;4903373;29;19949;-86
2022/09/24 00:03:25;;;;;;;26.52;13.70;;;8.70;99.90;;;;;;4902386;29;20029;-87
2022/09/24 00:05:52;;;;;;;24.23;13.70;;;8.70;99.90;;;;;;4902019;29;20491;-88
2022/09/24 00:08:19;;;;;;;21.85;12.70;;;8.60;99.90;;;;;;4903060;29;20425;-86
2022/09/24 00:10:48;;;;;;;21.67;12.70;;;8.60;99.90;;;;;;4902546;29;20123;-85
2022/09/24 00:13:17;;;;;;;25.17;12.18;;;8.60;99.90;;;;;;4919360;29;20032;-86
2022/09/24 00:15:48;;;;;;;24.88;12.82;;;8.60;99.90;;;;;;4902625;29;20039;-88
2022/09/24 00:18:17;;;;;;;18.05;11.65;;;8.60;99.90;;;;;;4899122;29;20084;-86
2022/09/24 00:20:44;;;;;;;18.83;11.10;;;8.60;99.90;;;;;;4893377;29;20039;-84
2022/09/24 00:23:11;;;;;;;20.50;12.75;;;8.60;99.90;;;;;;4902318;29;20089;-82
2022/09/24 00:28:28;;;;;;;22.10;12.18;;;8.50;99.90;;;;;;4918948;29;20070;-86
2022/09/24 00:30:58;;;;;;;23.05;13.68;;;8.50;99.90;;;;;;4919383;29;20031;-86
2022/09/24 00:33:27;;;;;;;25.33;14.30;;;8.50;99.90;;;;;;4919317;29;20032;-86
2022/09/24 00:35:58;;;;;;;28.75;14.43;;;8.50;99.90;;;;;;4918725;29;20436;-85
2022/09/24 00:38:24;;;;;;;31.83;14.77;;;8.50;99.90;;;;;;4919047;29;20080;-84
2022/09/24 00:40:50;;;;;;;26.33;12.32;;;8.50;99.90;;;;;;4918601;29;20460;-86
2022/09/24 00:43:32;;;;;;;28.05;16.35;;;8.40;99.90;;;;;;4919371;29;20036;-85
2022/09/24 00:46:22;;;;;;;46.05;25.48;;;8.40;99.90;;;;;;4919206;29;20035;-83
2022/09/24 00:48:52;;;;;;;24.55;13.90;;;8.50;99.90;;;;;;4918812;29;20025;-84
2022/09/24 00:51:20;;;;;;;20.77;12.75;;;8.40;99.90;;;;;;4919236;29;20034;-85
2022/09/24 00:53:51;;;;;;;20.42;12.25;;;8.40;99.90;;;;;;4918646;29;20474;-86
2022/09/24 00:56:19;;;;;;;21.67;13.07;;;8.40;99.90;;;;;;4918349;29;20119;-86
2022/09/24 00:58:51;;;;;;;22.20;12.32;;;8.40;99.90;;;;;;4918675;29;20184;-86
2022/09/24 01:01:18;;;;;;;;;;;8.40;99.90;;;;;;4919474;29;20039;-85
2022/09/24 01:03:45;;;;;;;40.00;19.63;;;8.40;99.90;;;;;;4918526;29;19957;-86
2022/09/24 01:06:12;;;;;;;66.45;34.75;;;8.40;99.90;;;;;;4901439;29;20365;-84
2022/09/24 01:08:39;;;;;;;71.00;36.10;;;8.30;99.90;;;;;;4918392;29;20472;-84
2022/09/24 01:11:28;;;;;;;67.70;32.22;;;8.30;99.90;;;;;;4901301;29;20083;-85
2022/09/24 01:14:01;;;;;;;58.80;31.45;;;8.30;99.90;;;;;;4901398;29;20032;-86
2022/09/24 01:16:31;;;;;;;;;;;8.30;99.90;;;;;;4918401;29;20040;-87
2022/09/24 01:19:32;;;;;;;45.50;25.15;;;8.30;99.90;;;;;;4917538;29;19914;-85
2022/09/24 01:22:14;;;;;;;49.30;25.90;;;8.30;99.90;;;;;;4899558;29;20039;-86
2022/09/24 01:24:57;;;;;;;54.08;29.05;;;8.30;99.90;;;;;;4882409;29;20025;-85
2022/09/24 01:27:38;;;;;;;50.65;27.70;;;8.20;99.90;;;;;;4899112;29;20033;-88
2022/09/24 01:30:12;;;;;;;51.08;27.25;;;8.30;99.90;;;;;;4899333;29;20029;-87
2022/09/24 01:32:49;;;;;;;53.90;27.98;;;8.20;99.90;;;;;;4910548;29;20101;-85
2022/09/24 01:35:24;;;;;;;44.70;25.85;;;8.20;99.90;;;;;;4917090;29;20468;-86
2022/09/24 01:37:56;;;;;;;55.17;28.48;;;8.30;99.90;;;;;;4917169;29;20031;-85
2022/09/24 01:40:25;;;;;;;55.60;28.85;;;8.20;99.90;;;;;;4917449;29;20056;-86
2022/09/24 01:42:53;;;;;;;70.47;33.63;;;8.20;99.90;;;;;;4900187;29;20032;-86
2022/09/24 01:45:20;;;;;;;78.85;36.03;;;8.20;99.90;;;;;;4916638;29;20028;-85
2022/09/24 01:47:47;;;;;;;78.15;37.42;;;8.20;99.90;;;;;;4899788;29;20036;-83
2022/09/24 01:50:16;;;;;;;77.35;36.05;;;8.20;99.90;;;;;;4900019;29;20505;-85
2022/09/24 01:52:47;;;;;;;75.32;35.47;;;8.20;99.90;;;;;;4899793;29;20043;-84
2022/09/24 01:55:16;;;;;;;62.83;30.75;;;8.20;99.90;;;;;;4900009;29;20036;-85
2022/09/24 01:57:50;;;;;;;57.63;26.67;;;8.20;99.90;;;;;;4916885;29;20036;-84
2022/09/24 02:00:19;;;;;;;46.90;25.42;;;8.10;99.90;;;;;;4917107;29;20036;-87
2022/09/24 02:02:45;;;;;;;45.58;24.45;;;8.10;99.90;;;;;;4899533;29;20032;-83
2022/09/24 02:05:24;;;;;;;33.10;18.88;;;8.10;99.90;;;;;;4900215;29;20092;-84
2022/09/24 02:08:10;;;;;;;34.63;18.48;;;8.10;99.90;;;;;;4917284;29;20032;-83
2022/09/24 02:10:47;;;;;;;32.25;17.00;;;8.10;99.90;;;;;;4912840;29;20040;-84
2022/09/24 02:13:16;;;;;;;28.05;16.42;;;8.10;99.90;;;;;;4911369;29;20091;-83
2022/09/24 02:15:45;;;;;;;38.70;19.25;;;8.00;99.90;;;;;;4910942;29;20028;-85
2022/09/24 02:18:15;;;;;;;35.58;19.35;;;8.00;99.90;;;;;;4917200;29;20096;-85
2022/09/24 02:20:42;;;;;;;42.08;23.70;;;8.00;99.90;;;;;;4899592;29;20031;-84
2022/09/24 02:23:10;;;;;;;49.65;25.13;;;8.00;99.90;;;;;;4899459;29;20361;-85
2022/09/24 02:26:02;;;;;;;46.80;25.48;;;8.00;99.90;;;;;;4916574;29;20025;-85
2022/09/24 02:28:29;;;;;;;44.00;22.50;;;8.00;99.90;;;;;;4899808;29;20043;-84
2022/09/24 02:31:04;;;;;;;41.55;22.63;;;8.00;99.90;;;;;;4903118;29;20732;-86
2022/09/24 02:36:17;;;;;;;33.00;16.77;;;8.00;99.90;;;;;;4916057;29;20035;-85
2022/09/24 02:38:45;;;;;;;30.50;17.13;;;8.00;99.90;;;;;;4903127;29;20032;-85
2022/09/24 02:41:12;;;;;;;27.77;15.48;;;7.90;99.90;;;;;;4896774;29;20024;-84
2022/09/24 02:43:39;;;;;;;29.92;15.40;;;7.90;99.90;;;;;;4920008;29;20111;-83
2022/09/24 02:46:08;;;;;;;32.63;16.55;;;7.90;99.90;;;;;;4920144;29;20028;-87
2022/09/24 02:48:35;;;;;;;32.10;16.13;;;7.90;99.90;;;;;;4919916;29;20029;-85
2022/09/24 02:51:03;;;;;;;31.00;15.32;;;7.80;99.90;;;;;;4920639;29;20036;-85
2022/09/24 02:53:29;;;;;;;27.95;15.38;;;7.80;99.90;;;;;;4920048;29;20391;-85
2022/09/24 02:55:55;;;;;;;25.75;15.27;;;7.80;99.90;;;;;;4903286;29;20103;-85
2022/09/24 02:58:21;;;;;;;30.15;15.45;;;7.70;99.90;;;;;;4920090;29;20068;-85
2022/09/24 03:00:46;;;;;;;27.08;15.63;;;7.70;99.90;;;;;;4920079;29;20032;-86
2022/09/24 03:03:12;;;;;;;29.95;15.98;;;7.70;99.90;;;;;;4919730;29;20132;-84
2022/09/24 03:05:38;;;;;;;28.95;17.27;;;7.70;99.90;;;;;;4902087;29;20028;-85
2022/09/24 03:08:06;;;;;;;35.08;18.65;;;7.70;99.90;;;;;;4919661;29;20035;-84
2022/09/24 03:10:32;;;;;;;34.55;21.17;;;7.70;99.90;;;;;;4920033;29;20064;-84
2022/09/24 03:12:58;;;;;;;34.42;20.17;;;7.70;99.90;;;;;;4919632;29;20095;-84
2022/09/24 03:15:24;;;;;;;36.03;20.15;;;7.70;99.90;;;;;;4903157;29;20042;-86
2022/09/24 03:17:51;;;;;;;36.60;19.35;;;7.70;99.90;;;;;;4920764;29;20048;-87
2022/09/24 03:20:16;;;;;;;28.35;17.50;;;7.80;99.90;;;;;;4920634;29;20095;-84
2022/09/24 03:22:42;;;;;;;28.15;17.40;;;7.70;99.90;;;;;;4920040;29;20031;-86
2022/09/24 03:25:09;;;;;;;29.08;17.45;;;7.80;99.90;;;;;;4919610;29;20109;-84
2022/09/24 03:27:35;;;;;;;26.83;15.80;;;7.70;99.90;;;;;;4919485;29;20102;-85
2022/09/24 03:32:47;;;;;;;29.73;15.48;;;7.70;99.90;;;;;;4919042;29;20571;-84
2022/09/24 03:35:14;;;;;;;26.10;15.63;;;7.70;99.90;;;;;;4902125;29;20060;-84
2022/09/24 03:37:42;;;;;;;29.45;15.45;;;7.70;99.90;;;;;;4902123;29;20468;-84
2022/09/24 03:40:08;;;;;;;25.30;16.38;;;7.60;99.90;;;;;;4918951;29;20031;-84
2022/09/24 03:42:34;;;;;;;26.65;15.68;;;7.60;99.90;;;;;;4901458;29;20087;-86
2022/09/24 03:45:00;;;;;;;24.10;15.15;;;7.60;99.90;;;;;;4919770;29;20036;-84
2022/09/24 03:47:25;;;;;;;29.38;16.60;;;7.60;99.90;;;;;;4902109;29;20032;-84
2022/09/24 03:49:52;;;;;;;30.52;17.67;;;7.60;99.90;;;;;;4919382;29;20031;-86
2022/09/24 03:52:18;;;;;;;37.33;19.80;;;7.60;99.90;;;;;;4902068;29;20040;-85
2022/09/24 03:54:44;;;;;;;35.33;19.40;;;7.60;99.90;;;;;;4902298;29;20446;-86
2022/09/24 03:57:13;;;;;;;42.28;20.25;;;7.50;99.90;;;;;;4902407;29;20065;-85
2022/09/24 03:59:40;;;;;;;41.17;19.77;;;7.50;99.90;;;;;;4902235;29;20495;-84
2022/09/24 04:02:07;;;;;;;40.05;19.15;;;7.50;99.90;;;;;;4901482;29;20107;-84
2022/09/24 04:04:32;;;;;;;34.08;19.65;;;7.50;99.90;;;;;;4901663;29;20080;-87
2022/09/24 04:06:58;;;;;;;35.78;19.02;;;7.50;99.90;;;;;;4919027;29;20478;-85
2022/09/24 04:09:24;;;;;;;37.15;18.92;;;7.40;99.90;;;;;;4901122;29;20475;-86
2022/09/24 04:11:53;;;;;;;40.20;19.27;;;7.40;99.90;;;;;;4918814;29;20032;-84
2022/09/24 04:14:20;;;;;;;42.92;21.88;;;7.40;99.90;;;;;;4901888;29;20176;-86
2022/09/24 04:16:46;;;;;;;40.05;21.55;;;7.40;99.90;;;;;;4901456;29;20495;-85
2022/09/24 04:19:14;;;;;;;42.78;22.52;;;7.40;99.90;;;;;;4901612;29;20027;-86
2022/09/24 04:21:41;;;;;;;39.97;22.67;;;7.40;99.90;;;;;;4918531;29;20035;-84
2022/09/24 04:24:07;;;;;;;38.35;22.77;;;7.40;99.90;;;;;;4918834;29;20028;-84
2022/09/24 04:26:33;;;;;;;41.70;22.60;;;7.40;99.90;;;;;;4901216;29;20032;-86
2022/09/24 04:28:59;;;;;;;42.97;23.50;;;7.40;99.90;;;;;;4918643;29;20464;-85
2022/09/24 04:31:26;;;;;;;42.83;22.45;;;7.40;99.90;;;;;;4894719;29;20043;-84
2022/09/24 04:33:52;;;;;;;43.13;20.85;;;7.40;99.90;;;;;;4918317;29;20028;-85
2022/09/24 04:36:18;;;;;;;47.35;22.20;;;7.40;99.90;;;;;;4901598;29;20036;-86
2022/09/24 04:38:47;;;;;;;49.10;22.55;;;7.30;99.90;;;;;;4900844;29;20024;-85
2022/09/24 04:41:16;;;;;;;46.75;21.45;;;7.20;99.90;;;;;;4901092;29;20436;-85
2022/09/24 04:43:45;;;;;;;43.10;20.95;;;7.10;99.90;;;;;;4917699;29;20051;-87
2022/09/24 04:46:12;;;;;;;39.15;20.10;;;7.20;99.90;;;;;;4901060;29;20043;-85
2022/09/24 04:48:38;;;;;;;41.00;22.33;;;7.20;99.90;;;;;;4901256;29;20123;-85
2022/09/24 04:51:07;;;;;;;44.10;22.25;;;7.20;99.90;;;;;;4900855;29;20028;-84
2022/09/24 04:53:36;;;;;;;45.90;26.40;;;7.20;99.90;;;;;;4900637;29;20468;-85
2022/09/24 04:56:03;;;;;;;45.90;25.38;;;7.20;99.90;;;;;;4917680;29;20028;-85
2022/09/24 04:58:30;;;;;;;47.55;26.80;;;7.20;99.90;;;;;;4918219;29;20032;-83
2022/09/24 05:00:56;;;;;;;54.03;27.80;;;7.30;99.90;;;;;;4900750;29;20032;-85
2022/09/24 05:03:22;;;;;;;53.45;27.63;;;7.30;99.90;;;;;;4917880;29;20036;-83
2022/09/24 05:05:49;;;;;;;46.40;27.60;;;7.30;99.90;;;;;;4900757;29;20028;-87
2022/09/24 05:08:15;;;;;;;56.95;29.73;;;7.40;99.90;;;;;;4916916;29;20036;-84
2022/09/24 05:10:41;;;;;;;58.47;32.78;;;7.50;99.90;;;;;;4900777;29;20032;-83
2022/09/24 05:13:06;;;;;;;69.45;33.20;;;7.60;99.90;;;;;;4900476;29;20043;-85
2022/09/24 05:15:32;;;;;;;63.25;35.67;;;7.60;99.90;;;;;;4917543;29;20421;-82
2022/09/24 05:17:58;;;;;;;81.07;40.97;;;7.70;99.90;;;;;;4917663;29;20052;-82
2022/09/24 05:20:24;;;;;;;78.30;43.92;;;7.70;99.90;;;;;;4918002;29;20372;-86
2022/09/24 05:22:50;;;;;;;86.18;52.55;;;7.80;99.90;;;;;;4916998;29;20036;-84
2022/09/24 05:25:18;;;;;;;52.97;29.77;;;7.80;99.90;;;;;;4900293;29;20494;-81
2022/09/24 05:27:49;;;;;;;48.15;28.08;;;7.90;99.90;;;;;;4916501;29;20499;-81
2022/09/24 05:30:16;;;;;;;50.40;26.65;;;7.90;99.90;;;;;;4900355;29;20432;-82
2022/09/24 05:32:42;;;;;;;60.38;36.83;;;7.90;99.90;;;;;;4917268;29;20036;-83
2022/09/24 05:35:08;;;;;;;66.45;43.28;;;7.90;99.90;;;;;;4899800;29;20087;-81
2022/09/24 05:37:37;;;;;;;57.42;37.15;;;7.90;99.90;;;;;;4917300;29;20039;-82
2022/09/24 05:42:49;;;;;;;32.42;20.83;;;8.00;99.90;;;;;;4917143;29;20070;-83
2022/09/24 05:45:16;;;;;;;32.97;19.35;;;8.00;99.90;;;;;;4900251;29;20032;-84
2022/09/24 05:47:44;;;;;;;30.30;18.10;;;8.00;99.90;;;;;;4917051;29;20080;-83
2022/09/24 05:50:11;;;;;;;30.50;19.02;;;8.10;99.90;;;;;;4900026;29;20114;-82
2022/09/24 05:52:38;;;;;;;35.60;20.73;;;8.20;99.90;;;;;;4916517;29;20108;-81
2022/09/24 05:55:05;;;;;;;33.97;18.83;;;8.30;99.90;;;;;;4899898;29;20095;-81
2022/09/24 05:57:33;;;;;;;33.38;20.23;;;8.30;99.90;;;;;;4917008;29;20092;-83
2022/09/24 05:59:59;;;;;;;42.42;20.10;;;8.40;99.90;;;;;;4910760;29;20039;-82
2022/09/24 06:02:24;;;;;;;33.72;21.00;;;8.50;99.90;;;;;;4903221;29;20032;-80
2022/09/24 06:04:50;;;;;;;47.88;28.75;;;8.50;99.90;;;;;;4899199;29;20088;-82
2022/09/24 06:07:16;;;;;;;46.70;24.83;;;8.50;99.90;;;;;;4916552;29;20035;-83
2022/09/24 06:09:43;;;;;;;45.22;25.13;;;8.70;99.90;;;;;;4899400;29;20066;-82
2022/09/24 06:12:09;;;;;;;40.28;23.92;;;8.80;99.90;;;;;;4899408;29;20427;-80
2022/09/24 06:14:36;;;;;;;34.95;22.58;;;8.90;99.90;;;;;;4916794;29;20032;-83
2022/09/24 06:17:01;;;;;;;33.00;20.83;;;9.00;99.90;;;;;;4898985;29;20048;-81
2022/09/24 06:19:27;;;;;;;34.15;20.42;;;9.00;99.90;;;;;;4900816;29;20399;-82
2022/09/24 06:21:53;;;;;;;30.80;20.17;;;9.10;99.90;;;;;;4916311;29;20063;-81
2022/09/24 06:24:19;;;;;;;36.08;22.02;;;9.30;99.90;;;;;;4917034;29;20043;-82
2022/09/24 06:26:45;;;;;;;37.72;20.42;;;9.50;99.90;;;;;;4916902;29;20040;-82
2022/09/24 06:29:11;;;;;;;32.47;20.90;;;9.60;99.90;;;;;;4899607;29;20463;-84
2022/09/24 06:31:37;;;;;;;29.17;19.63;;;9.70;99.90;;;;;;4916208;29;20047;-82
2022/09/24 06:34:03;;;;;;;32.47;20.23;;;9.90;99.90;;;;;;4899640;29;20119;-82
2022/09/24 06:36:28;;;;;;;37.38;20.63;;;10.10;99.90;;;;;;4899822;29;20475;-82
2022/09/24 06:38:54;;;;;;;37.05;23.08;;;10.20;99.90;;;;;;4916250;29;20039;-80
2022/09/24 06:41:21;;;;;;;42.55;21.67;;;10.50;99.90;;;;;;4916611;29;20031;-80
2022/09/24 06:43:47;;;;;;;44.08;23.17;;;10.60;99.90;;;;;;4916985;29;20032;-81
2022/09/24 06:46:14;;;;;;;37.72;24.08;;;10.80;99.90;;;;;;4916400;29;20056;-80
2022/09/24 06:48:41;;;;;;;43.47;25.48;;;11.00;99.90;;;;;;4916208;29;20429;-83
2022/09/24 06:51:07;;;;;;;41.63;25.38;;;11.20;99.90;;;;;;4916400;29;20059;-82
2022/09/24 06:53:33;;;;;;;47.53;25.33;;;11.40;99.90;;;;;;4899963;29;20456;-81
2022/09/24 06:55:59;;;;;;;38.80;25.80;;;11.60;99.90;;;;;;4916847;29;20028;-83
2022/09/24 06:58:25;;;;;;;42.03;26.08;;;11.70;99.90;;;;;;4917186;29;20088;-82
2022/09/24 07:01:00;;;;;;;54.42;32.35;;;11.90;99.90;;;;;;4916842;29;20428;-84
2022/09/24 07:03:27;;;;;;;51.60;29.85;;;12.10;99.90;;;;;;4917494;29;20028;-81
2022/09/24 07:05:53;;;;;;;46.60;30.35;;;12.30;99.90;;;;;;4900061;29;20104;-81
2022/09/24 07:08:19;;;;;;;56.83;33.13;;;12.40;99.90;;;;;;4917572;29;20408;-83
2022/09/24 07:10:47;;;;;;;54.88;33.30;;;12.60;99.90;;;;;;4917306;29;20028;-82
2022/09/24 07:13:14;;;;;;;54.97;31.38;;;12.80;99.90;;;;;;4899599;29;20109;-83
2022/09/24 07:15:41;;;;;;;59.30;30.02;;;13.00;99.90;;;;;;4901545;29;20055;-82
2022/09/24 07:18:08;;;;;;;50.15;30.38;;;13.30;99.90;;;;;;4903046;29;20404;-81
2022/09/24 07:20:35;;;;;;;53.05;31.85;;;13.40;99.90;;;;;;4903414;29;20035;-84
2022/09/24 07:23:03;;;;;;;57.47;32.13;;;13.50;99.90;;;;;;4920299;29;20491;-80
2022/09/24 07:25:28;;;;;;;406.80;52.53;;;13.60;99.90;;;;;;4920435;29;20031;-82
2022/09/24 07:27:54;;;;;;;104.75;33.80;;;13.80;99.90;;;;;;4919731;29;20024;-83
2022/09/24 07:30:20;;;;;;;39.60;24.38;;;14.00;99.90;;;;;;4903341;29;20028;-82
2022/09/24 07:32:49;;;;;;;47.28;26.40;;;14.20;99.90;;;;;;4903233;29;20039;-80
2022/09/24 07:35:15;;;;;;;81.50;26.42;;;14.30;99.90;;;;;;4920221;29;20028;-83
2022/09/24 07:37:41;;;;;;;68.28;27.08;;;14.40;99.90;;;;;;4920294;29;20059;-82
2022/09/24 07:40:07;;;;;;;43.25;24.75;;;14.50;99.90;;;;;;4920024;29;20217;-81
2022/09/24 07:42:33;;;;;;;42.03;23.92;;;14.70;99.90;;;;;;4920361;29;20035;-82
2022/09/24 07:44:59;;;;;;;32.22;21.70;;;14.90;99.90;;;;;;4919836;29;20028;-81
2022/09/24 07:47:25;;;;;;;33.40;21.05;;;15.00;99.90;;;;;;4919835;29;20036;-82
2022/09/24 07:49:51;;;;;;;34.33;21.27;;;15.00;99.90;;;;;;4903020;29;20028;-82
2022/09/24 07:52:17;;;;;;;36.22;21.25;;;15.00;99.90;;;;;;4919740;29;20043;-80
2022/09/24 07:54:43;;;;;;;35.17;21.08;;;15.10;99.90;;;;;;4919828;29;20028;-82
2022/09/24 07:57:13;;;;;;;30.20;19.00;;;15.10;99.90;;;;;;4902743;29;20036;-84
2022/09/24 07:59:39;;;;;;;32.80;18.08;;;15.20;99.90;;;;;;4919704;29;20041;-83
2022/09/24 08:02:14;;;;;;;27.88;16.48;;;15.30;99.90;;;;;;4902692;29;20039;-82
2022/09/24 08:04:40;;;;;;;23.73;16.42;;;15.50;99.90;;;;;;4903024;29;20028;-81
2022/09/24 08:07:06;;;;;;;25.67;15.85;;;15.70;99.90;;;;;;4919784;29;20024;-80
2022/09/24 08:09:32;;;;;;;25.45;15.35;;;15.70;99.90;;;;;;4902578;29;20432;-81
2022/09/24 08:11:58;;;;;;;25.33;13.23;;;15.70;99.90;;;;;;4919407;29;20039;-80
2022/09/24 08:14:24;;;;;;;19.83;10.88;;;15.80;99.90;;;;;;4918308;29;20456;-83
2022/09/24 08:16:51;;;;;;;19.25;11.45;;;15.70;99.90;;;;;;4918312;29;20131;-85
2022/09/24 08:19:17;;;;;;;18.55;9.52;;;15.80;99.90;;;;;;4918921;29;20040;-83
2022/09/24 08:21:43;;;;;;;16.70;8.98;;;15.90;99.90;;;;;;4902230;29;20040;-82
2022/09/24 08:24:09;;;;;;;19.67;8.93;;;15.90;99.90;;;;;;4902176;29;20032;-86
2022/09/24 08:26:34;;;;;;;14.07;8.35;;;16.10;99.90;;;;;;4919084;29;20028;-82
2022/09/24 08:29:00;;;;;;;13.30;9.35;;;16.20;99.90;;;;;;4918895;29;20107;-82
2022/09/24 08:31:26;;;;;;;13.10;9.38;;;16.30;99.90;;;;;;4919120;29;20030;-84
2022/09/24 08:33:52;;;;;;;23.08;10.95;;;16.50;99.90;;;;;;4919427;29;20028;-82
2022/09/24 08:36:18;;;;;;;14.55;10.07;;;16.70;99.90;;;;;;4919128;29;20056;-83
2022/09/24 08:38:44;;;;;;;22.55;12.10;;;16.70;98.30;;;;;;4902075;29;20123;-82
2022/09/24 08:41:31;;;;;;;21.63;10.23;;;16.90;99.90;;;;;;4919088;29;20036;-84
2022/09/24 08:44:12;;;;;;;19.30;10.55;;;17.10;96.30;;;;;;4901938;29;20400;-83
2022/09/24 08:49:44;;;;;;;23.65;11.50;;;17.50;97.40;;;;;;4919023;29;20144;-84
2022/09/24 08:52:28;;;;;;;16.75;10.95;;;17.70;94.50;;;;;;4918909;29;20096;-83
2022/09/24 08:54:54;;;;;;;17.90;10.05;;;17.80;95.20;;;;;;4918873;29;20349;-84
2022/09/24 08:57:21;;;;;;;15.65;10.13;;;18.00;93.50;;;;;;4918929;29;20035;-83
2022/09/24 08:59:51;;;;;;;14.60;10.25;;;18.20;90.50;;;;;;4918405;29;20369;-83
2022/09/24 09:03:00;;;;;;;14.10;10.15;;;18.40;90.40;;;;;;4918827;29;20027;-83
2022/09/24 09:05:50;;;;;;;16.63;10.45;;;18.50;87.60;;;;;;4918402;29;20028;-83
2022/09/24 09:08:45;;;;;;;12.57;8.85;;;18.70;90.00;;;;;;4919070;29;20024;-83
2022/09/24 09:11:15;;;;;;;8.52;6.40;;;18.90;85.40;;;;;;4901646;29;20048;-82
2022/09/24 09:14:23;;;;;;;9.48;7.18;;;19.20;80.20;;;;;;4901357;29;20464;-83
2022/09/24 09:16:57;;;;;;;13.15;8.60;;;19.30;75.00;;;;;;4859799;29;20082;-83
2022/09/24 09:19:35;;;;;;;11.15;8.75;;;19.50;77.30;;;;;;4859997;29;20036;-82
2022/09/24 09:22:12;;;;;;;11.52;6.97;;;19.60;78.90;;;;;;4860256;29;20396;-82
2022/09/24 09:24:46;;;;;;;10.80;7.85;;;19.80;70.90;;;;;;4859987;29;20043;-83
2022/09/24 09:27:14;;;;;;;11.60;6.55;;;19.90;70.10;;;;;;4859966;29;20048;-82
2022/09/24 09:29:45;;;;;;;8.15;7.05;;;20.10;69.30;;;;;;4844334;29;20029;-82
2022/09/24 09:32:37;;;;;;;8.95;6.65;;;20.20;69.70;;;;;;4860262;29;20033;-84
2022/09/24 09:35:10;;;;;;;;;;;20.40;72.80;;;;;;4844622;29;20041;-81
2022/09/24 09:37:46;;;;;;;8.50;6.60;;;20.20;67.10;;;;;;4859324;29;19908;-81
2022/09/24 09:40:33;;;;;;;11.48;6.80;;;20.20;66.20;;;;;;4858996;29;20041;-82
2022/09/24 09:43:03;;;;;;;9.85;6.47;;;20.30;63.90;;;;;;4859784;29;20041;-82
2022/09/24 09:45:36;;;;;;;11.45;7.43;;;20.50;62.10;;;;;;4859573;29;20025;-83
2022/09/24 09:48:02;;;;;;;8.30;6.35;;;20.60;61.30;;;;;;4859515;29;20543;-83
2022/09/24 09:50:45;;;;;;;8.88;5.55;;;20.70;63.90;;;;;;4859575;29;20525;-86
2022/09/24 09:53:28;;;;;;;9.38;5.07;;;20.90;63.90;;;;;;4893853;29;20044;-84
2022/09/24 09:56:06;;;;;;;9.40;5.28;;;21.00;59.20;;;;;;4917649;29;20040;-83
2022/09/24 09:58:35;;;;;;;8.82;4.90;;;21.20;57.50;;;;;;4917841;29;20036;-84
2022/09/24 10:01:12;;;;;;;4.95;4.00;;;21.30;57.10;;;;;;4900651;29;20078;-84
2022/09/24 10:03:45;;;;;;;6.03;4.15;;;21.30;53.50;;;;;;4917848;29;20046;-83
2022/09/24 10:06:12;;;;;;;6.75;4.22;;;21.30;52.90;;;;;;4917117;29;20028;-83
2022/09/24 10:08:39;;;;;;;7.18;4.38;;;21.10;52.60;;;;;;4897760;29;20047;-81
2022/09/24 10:11:06;;;;;;;4.57;3.35;;;21.10;53.50;;;;;;4917513;29;20032;-82
2022/09/24 10:13:33;;;;;;;6.43;3.70;;;21.00;52.00;;;;;;4917264;29;20028;-84
2022/09/24 10:16:03;;;;;;;7.28;4.32;;;21.00;54.60;;;;;;4917486;29;20028;-84
2022/09/24 10:18:37;;;;;;;7.00;4.25;;;21.10;53.00;;;;;;4900152;29;20044;-83
2022/09/24 10:21:10;;;;;;;9.57;4.57;;;21.20;51.80;;;;;;4915403;29;20384;-83
2022/09/24 10:23:47;;;;;;;7.40;4.68;;;21.40;51.70;;;;;;4916894;29;20032;-83
2022/09/24 10:26:13;;;;;;;9.77;4.60;;;21.60;52.90;;;;;;4916720;29;20079;-81
2022/09/24 10:31:31;;;;;;;6.30;5.32;;;;;;;;;;4917043;29;20455;-79
2022/09/24 10:33:58;;;;;;;6.32;4.50;;;;;;;;;;4916612;29;20035;-81
2022/09/24 10:36:26;;;;;;;6.05;4.90;;;;;;;;;;4917324;29;20064;-81
2022/09/24 10:39:25;;;;;;;6.38;5.05;;;;;;;;;;4917488;29;20116;-80
2022/09/24 10:41:52;;;;;;;6.00;5.00;;;;;;;;;;4859300;29;20097;-81
2022/09/24 10:44:19;;;;;;;9.35;5.50;;;;;;;;;;4859129;29;20105;-79
2022/09/24 10:46:58;;;;;;;6.45;4.90;;;;;;;;;;4859183;29;20039;-80
2022/09/24 10:49:26;;;;;;;7.22;5.50;;;;;;;;;;4858490;29;20130;-79
2022/09/24 10:52:22;;;;;;;5.82;5.05;;;;;;;;;;4862116;29;20045;-80
2022/09/24 10:54:48;;;;;;;6.78;5.97;;;;;;;;;;4858625;29;20065;-80
2022/09/24 10:57:20;;;;;;;7.10;5.75;;;;;;;;;;4862438;29;20128;-80
2022/09/24 10:59:55;;;;;;;5.88;5.10;;;;;;;;;;4847079;29;20037;-79
2022/09/24 11:02:21;;;;;;;9.00;6.18;;;;;;;;;;4862789;29;20047;-80
2022/09/24 11:04:51;;;;;;;8.25;6.60;;;;;;;;;;4862105;29;20040;-79
2022/09/24 11:07:36;;;;;;;6.30;5.70;;;;;;;;;;4862478;29;20073;-79
2022/09/24 11:10:12;;;;;;;9.90;5.13;;;;;;;;;;4862578;29;20555;-79
2022/09/24 11:12:57;;;;;;;10.57;6.22;;;;;;;;;;4862083;29;20065;-78
2022/09/24 11:15:29;;;;;;;7.88;5.05;;;;;;;;;;4862341;29;20044;-80
2022/09/24 11:18:14;;;;;;;9.15;5.10;;;;;;;;;;4886663;29;20135;-79
2022/09/24 11:20:46;;;;;;;10.70;6.03;;;;;;;;;;4920424;29;20461;-79
2022/09/24 11:23:13;;;;;;;5.93;4.82;;;;;;;;;;4920784;29;20368;-79
2022/09/24 11:25:59;;;;;;;7.68;4.05;;;;;;;;;;4920332;29;20463;-79
2022/09/24 11:28:44;;;;;;;5.85;5.18;;;;;;;;;;4913260;29;20044;-81
2022/09/24 11:31:10;;;;;;;10.10;5.57;;;;;;;;;;4920305;29;20083;-79
2022/09/24 11:33:54;;;;;;;5.90;5.30;;;;;;;;;;4920158;29;20035;-81
2022/09/24 11:36:20;;;;;;;9.68;5.82;;;;;;;;;;4920305;29;20035;-81
2022/09/24 11:38:56;;;;;;;9.18;6.07;;;;;;;;;;4920175;29;20028;-79
2022/09/24 11:41:41;;;;;;;7.30;6.10;;;;;;;;;;4920081;29;20498;-80
2022/09/24 11:44:12;;;;;;;6.38;5.53;;;;;;;;;;4920114;29;20484;-80
2022/09/24 11:46:53;;;;;;;6.70;5.95;;;;;;;;;;4902987;29;20114;-79
2022/09/24 11:49:32;;;;;;;7.03;6.35;;;;;;;;;;4903240;29;20476;-80
2022/09/24 11:52:18;;;;;;;7.10;6.13;;;;;;;;;;4903044;29;20104;-80
2022/09/24 11:54:56;;;;;;;7.63;6.03;;;;;;;;;;4919863;29;20024;-79
2022/09/24 11:57:27;;;;;;;7.28;5.78;;;;;;;;;;4919610;29;20479;-80
2022/09/24 11:59:59;;;;;;;6.75;6.22;;;;;;;;;;4902750;29;20024;-80
2022/09/24 12:02:55;;;;;;;6.20;5.60;;;;;;;;;;4902020;29;20390;-79
2022/09/24 12:05:24;;;;;;;6.30;5.80;;;;;;;;;;4864078;29;20037;-80
2022/09/24 12:07:55;;;;;;;7.82;5.50;;;;;;;;;;4864117;29;20544;-79
2022/09/24 12:10:23;;;;;;;7.20;6.55;;;;;;;;;;4880300;29;20043;-79
2022/09/24 12:12:51;;;;;;;8.20;6.38;;;;;;;;;;4879822;29;20105;-80
2022/09/24 12:15:22;;;;;;;11.10;5.75;;;;;;;;;;4879840;29;20036;-81
2022/09/24 12:18:01;;;;;;;8.13;5.90;;;;;;;;;;4878947;29;20065;-79
2022/09/24 12:20:27;;;;;;;6.72;6.22;;;;;;;;;;4879515;29;20264;-81
2022/09/24 12:23:06;;;;;;;6.32;5.72;;;;;;;;;;4879902;29;20134;-83
2022/09/24 12:25:38;;;;;;;7.15;6.30;;;;;;;;;;4863917;29;20025;-81
2022/09/24 12:28:04;;;;;;;6.40;5.80;;;;;;;;;;4864354;29;20467;-81
2022/09/24 12:33:32;;;;;;;7.70;6.80;;;;;;;;;;4879483;29;20532;-81
2022/09/24 12:36:07;;;;;;;8.85;6.53;;;;;;;;;;4879312;29;20461;-81
2022/09/24 12:38:49;;;;;;;6.10;5.53;;;;;;;;;;4879394;29;20025;-81
2022/09/24 12:41:15;;;;;;;;;;;;;;;;;;4892126;29;20062;-82
2022/09/24 12:44:02;;;;;;;6.40;5.47;;;;;;;;;;4918988;29;20418;-81
2022/09/24 12:46:31;;;;;;;5.95;5.30;;;;;;;;;;4919042;29;20024;-81
2022/09/24 12:48:57;;;;;;;5.60;4.82;;;;;;;;;;4918571;29;20028;-81
2022/09/24 12:51:24;;;;;;;7.03;5.78;;;;;;;;;;4919071;29;20032;-81
2022/09/24 12:54:05;;;;;;;5.93;5.32;;;;;;;;;;4918373;29;20036;-82
2022/09/24 12:56:31;;;;;;;6.20;5.60;;;;;;;;;;4918410;29;20020;-81
2022/09/24 12:58:57;;;;;;;6.10;5.60;;;;;;;;;;4918931;29;20035;-83
2022/09/24 13:01:23;;;;;;;6.18;5.07;;;;;;;;;;4918753;29;20024;-80
2022/09/24 13:04:02;;;;;;;5.65;5.10;;;;;;;;;;4918329;29;20042;-84
2022/09/24 13:06:33;;;;;;;5.85;5.35;;;;;;;;;;4901552;29;20467;-82
2022/09/24 13:09:00;;;;;;;5.30;4.80;;;;;;;;;;4901631;29;20464;-81
2022/09/24 13:11:35;;;;;;;9.10;7.82;;;;;;;;;;4917970;29;20676;-81
2022/09/24 13:14:04;;;;;;;6.40;5.80;;;;;;;;;;4918414;29;20032;-80
2022/09/24 13:16:31;;;;;;;6.88;6.25;;;;;;;;;;4918083;29;20083;-80
2022/09/24 13:19:01;;;;;;;6.63;6.07;;;;;;;;;;4918547;29;20107;-81
2022/09/24 13:21:28;;;;;;;6.57;6.03;;;;;;;;;;4918546;29;20047;-81
2022/09/24 13:23:54;;;;;;;7.75;7.15;;;;;;;;;;4901214;29;20167;-83
2022/09/24 13:26:20;;;;;;;6.40;5.90;;;;;;;;;;4918408;29;20024;-82
2022/09/24 13:28:47;;;;;;;13.20;5.18;;;;;;;;;;4918283;29;20039;-81
2022/09/24 13:31:32;;;;;;;6.80;6.20;;;;;;;;;;4901079;29;20032;-79
2022/09/24 13:33:59;;;;;;;6.82;6.22;;;;;;;;;;4918358;29;20039;-79
2022/09/24 13:36:37;;;;;;;17.95;13.60;;;;;;;;;;4901172;29;20503;-78
2022/09/24 13:39:07;;;;;;;12.10;10.05;;;;;;;;;;4917808;29;20025;-77